Time;durP1;ratioP1;P1;durP2;ratioP2;P2;SDS_P1;SDS_P2;PMS_P1;PMS_P2;Temp;Humidity;BMP_temperature;BMP_pressure;BME280_temperature;BME280_humidity;BME280_pressure;Samples;Min_cycle;Max_cycle;Signal;HPM_P1;HPM_P2
2022/08/22 00:03:14;;;;;;;7.40;3.20;;;18.70;97.40;;;;;;10520495;28;20052;-77
2022/08/22 00:08:28;;;;;;;5.95;2.85;;;18.60;97.50;;;;;;10502090;28;20571;-77
2022/08/22 00:13:37;;;;;;;8.65;3.17;;;18.40;97.70;;;;;;10515919;28;20052;-77
2022/08/22 00:18:48;;;;;;;6.70;3.17;;;18.10;97.80;;;;;;10520851;28;20482;-77
2022/08/22 00:23:58;;;;;;;8.80;3.15;;;17.90;98.70;;;;;;10537130;28;20389;-76
2022/08/22 00:29:05;;;;;;;10.40;3.35;;;17.90;98.60;;;;;;10503769;28;20044;-78
2022/08/22 00:34:16;;;;;;;7.28;3.35;;;17.80;99.00;;;;;;10526957;28;20041;-78
2022/08/22 00:39:27;;;;;;;7.28;3.45;;;17.90;99.40;;;;;;10507929;28;20131;-78
2022/08/22 00:45:05;;;;;;;6.78;3.40;;;18.00;98.70;;;;;;10504151;28;20505;-78
2022/08/22 00:50:22;;;;;;;;;;;18.00;98.90;;;;;;10501922;28;20460;-78
2022/08/22 00:55:49;;;;;;;5.20;3.20;;;18.00;99.10;;;;;;10537392;28;20255;-78
2022/08/22 01:00:55;;;;;;;5.45;3.13;;;17.90;99.20;;;;;;10518052;28;20132;-78
2022/08/22 01:06:18;;;;;;;5.28;3.40;;;17.70;99.30;;;;;;10505303;28;20406;-78
2022/08/22 01:11:53;;;;;;;8.25;3.25;;;17.70;99.60;;;;;;10508014;28;20388;-76
2022/08/22 01:17:30;;;;;;;7.80;3.30;;;17.70;99.50;;;;;;10496098;28;20517;-76
2022/08/22 01:23:29;;;;;;;;;;;17.80;99.30;;;;;;10508834;28;20079;-76
2022/08/22 01:29:17;;;;;;;8.60;3.80;;;17.70;99.70;;;;;;10421666;28;19927;-76
2022/08/22 01:34:48;;;;;;;7.07;3.40;;;17.70;99.80;;;;;;10513204;28;20052;-76
2022/08/22 01:41:02;;;;;;;7.40;3.15;;;17.70;99.70;;;;;;10523445;28;20059;-76
2022/08/22 01:46:31;;;;;;;11.00;3.20;;;17.60;99.90;;;;;;10521059;28;20040;-75
2022/08/22 01:51:48;;;;;;;5.80;3.40;;;17.40;99.90;;;;;;10514101;28;20048;-76
2022/08/22 01:56:50;;;;;;;7.05;3.40;;;17.40;99.90;;;;;;10528575;28;20044;-76
2022/08/22 02:02:01;;;;;;;5.68;3.20;;;17.40;99.90;;;;;;10534640;28;20055;-76
2022/08/22 02:07:13;;;;;;;9.20;3.30;;;17.40;99.90;;;;;;10499835;28;20086;-77
2022/08/22 02:12:31;;;;;;;5.75;3.08;;;17.40;99.90;;;;;;10497257;28;20475;-76
2022/08/22 02:17:51;;;;;;;5.22;3.00;;;17.50;99.90;;;;;;10498473;28;20049;-76
2022/08/22 02:23:03;;;;;;;6.32;2.90;;;17.40;99.90;;;;;;10502360;28;20407;-76
2022/08/22 02:28:12;;;;;;;8.48;3.00;;;17.40;99.90;;;;;;10511145;28;20049;-79
2022/08/22 02:33:29;;;;;;;5.93;2.80;;;17.40;99.90;;;;;;10519728;28;20060;-77
2022/08/22 02:38:39;;;;;;;8.05;2.90;;;17.30;99.90;;;;;;10506282;28;20059;-77
2022/08/22 02:43:49;;;;;;;5.57;3.17;;;17.20;99.90;;;;;;10526834;28;20059;-77
2022/08/22 02:49:04;;;;;;;7.97;3.00;;;17.20;99.90;;;;;;10528227;28;20055;-77
2022/08/22 02:54:18;;;;;;;11.60;3.00;;;17.10;99.90;;;;;;10519659;28;20043;-76
2022/08/22 02:59:33;;;;;;;6.70;3.30;;;16.90;99.90;;;;;;10536228;28;20054;-76
2022/08/22 03:04:51;;;;;;;5.25;2.80;;;16.90;99.90;;;;;;10548269;28;20052;-75
2022/08/22 03:10:10;;;;;;;9.77;3.42;;;16.80;99.90;;;;;;10513872;28;20049;-74
2022/08/22 03:15:22;;;;;;;6.88;2.95;;;16.50;99.90;;;;;;10503241;28;20056;-75
2022/08/22 03:20:43;;;;;;;6.95;3.40;;;16.60;99.90;;;;;;10529307;28;20055;-76
2022/08/22 03:25:59;;;;;;;6.28;3.17;;;16.60;99.90;;;;;;10503792;28;20045;-75
2022/08/22 03:31:12;;;;;;;7.70;3.65;;;16.70;99.90;;;;;;10505262;28;20450;-76
2022/08/22 03:36:27;;;;;;;6.22;3.28;;;16.60;99.90;;;;;;10504909;28;20040;-76
2022/08/22 03:42:12;;;;;;;6.07;3.08;;;16.60;99.90;;;;;;10502069;28;20067;-77
2022/08/22 03:47:49;;;;;;;7.97;3.53;;;16.50;99.90;;;;;;10502683;28;20040;-75
2022/08/22 03:53:48;;;;;;;7.60;3.53;;;16.30;99.90;;;;;;10501694;28;20052;-76
2022/08/22 03:59:15;;;;;;;5.63;3.42;;;16.40;99.90;;;;;;10451276;28;20051;-78
2022/08/22 04:05:26;;;;;;;7.20;3.50;;;16.40;99.90;;;;;;10541374;28;20047;-79
2022/08/22 04:11:21;;;;;;;7.03;3.33;;;16.40;99.90;;;;;;10501092;28;20051;-76
2022/08/22 04:17:04;;;;;;;6.50;3.20;;;16.40;99.90;;;;;;10429173;28;20048;-77
2022/08/22 04:22:53;;;;;;;4.70;3.03;;;16.30;99.90;;;;;;10529195;28;20051;-76
2022/08/22 04:28:08;;;;;;;7.85;3.10;;;15.80;99.90;;;;;;10502100;28;20447;-75
2022/08/22 04:33:19;;;;;;;6.05;3.45;;;15.80;99.90;;;;;;10543737;28;20059;-77
2022/08/22 04:38:29;;;;;;;5.63;3.50;;;15.90;99.90;;;;;;10543258;28;20056;-76
2022/08/22 04:43:41;;;;;;;7.22;4.00;;;16.00;99.90;;;;;;10522426;28;20063;-78
2022/08/22 04:48:52;;;;;;;6.28;3.78;;;16.00;99.90;;;;;;10503373;28;20044;-76
2022/08/22 04:54:20;;;;;;;6.57;3.35;;;16.10;99.90;;;;;;10542705;28;20451;-77
2022/08/22 04:59:25;;;;;;;7.55;3.47;;;16.20;99.90;;;;;;10580189;28;20044;-77
2022/08/22 05:04:32;;;;;;;9.15;3.20;;;16.20;99.90;;;;;;10579477;28;20048;-76
2022/08/22 05:09:41;;;;;;;7.82;3.75;;;16.30;99.90;;;;;;10551161;28;20048;-76
2022/08/22 05:14:47;;;;;;;5.95;3.50;;;16.20;99.90;;;;;;10561663;28;20044;-78
2022/08/22 05:19:56;;;;;;;7.10;3.40;;;16.20;99.90;;;;;;10541256;28;20072;-77
2022/08/22 05:25:04;;;;;;;7.38;3.83;;;16.00;99.90;;;;;;10485662;28;20045;-77
2022/08/22 05:30:14;;;;;;;8.43;4.17;;;15.90;99.90;;;;;;10494840;28;20051;-75
2022/08/22 05:35:26;;;;;;;8.75;4.40;;;16.00;99.90;;;;;;10505365;28;20062;-76
2022/08/22 05:40:31;;;;;;;9.82;4.30;;;16.10;99.90;;;;;;10573652;28;20052;-78
2022/08/22 05:45:35;;;;;;;8.13;4.13;;;16.10;99.90;;;;;;10580736;28;20373;-79
2022/08/22 05:50:43;;;;;;;9.05;5.28;;;16.20;99.90;;;;;;10556961;28;20052;-76
2022/08/22 05:55:55;;;;;;;8.23;5.10;;;16.40;99.90;;;;;;10529477;28;20045;-77
2022/08/22 06:01:06;;;;;;;9.45;5.05;;;16.70;99.90;;;;;;10577966;28;20058;-79
2022/08/22 06:06:17;;;;;;;8.90;4.20;;;16.80;99.90;;;;;;10570648;28;20071;-79
2022/08/22 06:11:26;;;;;;;7.93;4.03;;;16.90;99.90;;;;;;10586276;28;20048;-78
2022/08/22 06:16:42;;;;;;;7.93;4.10;;;16.90;99.90;;;;;;10585689;28;20099;-79
2022/08/22 06:21:48;;;;;;;6.93;3.80;;;17.10;99.90;;;;;;10586529;28;20112;-75
2022/08/22 06:26:53;;;;;;;6.80;3.92;;;17.10;99.90;;;;;;10588516;28;20556;-77
2022/08/22 06:31:56;;;;;;;7.45;3.90;;;17.10;99.90;;;;;;10588162;28;20035;-77
2022/08/22 06:37:06;;;;;;;7.63;4.35;;;17.20;99.90;;;;;;10587343;28;20048;-77
2022/08/22 06:42:12;;;;;;;10.80;4.32;;;17.00;99.90;;;;;;10585833;28;20151;-77
2022/08/22 06:47:21;;;;;;;15.80;8.57;;;17.20;99.90;;;;;;10579100;28;20504;-76
2022/08/22 06:52:27;;;;;;;21.50;13.07;;;17.30;99.90;;;;;;10543999;28;20151;-77
2022/08/22 06:57:35;;;;;;;10.02;4.60;;;17.40;99.90;;;;;;10543477;28;20108;-78
2022/08/22 07:02:42;;;;;;;8.70;4.83;;;17.40;99.90;;;;;;10578529;28;20054;-77
2022/08/22 07:07:46;;;;;;;7.93;4.25;;;17.40;99.90;;;;;;10551403;28;20045;-76
2022/08/22 07:12:52;;;;;;;7.65;4.03;;;17.50;99.90;;;;;;10511336;28;20485;-73
2022/08/22 07:18:01;;;;;;;9.90;4.25;;;17.80;99.90;;;;;;10557195;28;20044;-74
2022/08/22 07:23:09;;;;;;;8.10;4.63;;;17.90;99.90;;;;;;10494582;28;20108;-73
2022/08/22 07:28:21;;;;;;;7.10;4.22;;;18.10;99.90;;;;;;10492594;28;20045;-74
2022/08/22 07:33:42;;;;;;;7.85;4.20;;;18.30;99.90;;;;;;10549338;28;20383;-74
2022/08/22 07:38:56;;;;;;;9.32;4.55;;;18.30;99.90;;;;;;10576365;28;20060;-75
2022/08/22 07:44:09;;;;;;;9.45;4.30;;;18.50;99.90;;;;;;10547683;28;20048;-74
2022/08/22 07:49:19;;;;;;;10.57;4.25;;;18.60;99.70;;;;;;10531350;28;20098;-74
2022/08/22 07:54:27;;;;;;;7.40;4.07;;;18.70;99.10;;;;;;10533313;28;20476;-74
2022/08/22 07:59:31;;;;;;;8.02;4.35;;;18.80;98.60;;;;;;10518795;28;20062;-72
2022/08/22 08:04:35;;;;;;;7.88;4.20;;;18.90;98.50;;;;;;10522350;28;20079;-74
2022/08/22 08:09:44;;;;;;;9.60;4.40;;;19.00;97.90;;;;;;10529281;28;20048;-71
2022/08/22 08:14:54;;;;;;;6.82;4.10;;;19.10;97.80;;;;;;10528663;28;20045;-73
2022/08/22 08:19:57;;;;;;;9.85;3.95;;;19.30;98.30;;;;;;10528855;28;20054;-72
2022/08/22 08:25:03;;;;;;;7.65;4.07;;;19.40;97.10;;;;;;10529871;28;20065;-72
2022/08/22 08:30:15;;;;;;;9.23;3.75;;;19.40;96.80;;;;;;10545690;28;20048;-73
2022/08/22 08:35:23;;;;;;;8.63;3.88;;;19.40;96.60;;;;;;10559701;28;20051;-72
2022/08/22 08:41:17;;;;;;;10.88;4.05;;;19.60;96.70;;;;;;10551953;28;20053;-73
2022/08/22 08:46:49;;;;;;;5.95;3.70;;;19.70;96.90;;;;;;10525085;28;20120;-72
2022/08/22 08:52:28;;;;;;;9.38;3.95;;;20.00;97.40;;;;;;10530156;28;20075;-73
2022/08/22 08:57:58;;;;;;;5.63;3.50;;;20.20;97.20;;;;;;10528407;28;20112;-73
2022/08/22 09:03:10;;;;;;;6.22;3.63;;;20.40;97.40;;;;;;10527458;28;20607;-75
2022/08/22 09:08:41;;;;;;;8.82;3.50;;;20.50;97.40;;;;;;10520944;28;20055;-74
2022/08/22 09:13:57;;;;;;;9.07;4.13;;;20.80;97.40;;;;;;10569715;28;20043;-75
2022/08/22 09:19:37;;;;;;;8.43;4.03;;;21.00;97.00;;;;;;10555906;28;20036;-73
2022/08/22 09:25:22;;;;;;;7.10;4.10;;;21.20;96.40;;;;;;10497435;28;20053;-73
2022/08/22 09:30:46;;;;;;;8.15;4.20;;;21.40;96.90;;;;;;10453018;28;20048;-74
2022/08/22 09:36:01;;;;;;;6.63;4.13;;;21.50;96.40;;;;;;10538303;28;20736;-74
2022/08/22 09:41:23;;;;;;;8.68;4.40;;;21.60;96.30;;;;;;10538325;28;20135;-74
2022/08/22 09:46:33;;;;;;;7.60;3.95;;;21.70;96.20;;;;;;10548649;28;20111;-74
2022/08/22 09:51:40;;;;;;;6.90;4.38;;;22.00;96.00;;;;;;10566620;28;20044;-74
2022/08/22 09:56:57;;;;;;;9.05;4.30;;;22.00;95.50;;;;;;10568482;28;20052;-73
2022/08/22 10:02:18;;;;;;;6.35;4.13;;;22.20;95.40;;;;;;10543003;28;20050;-74
2022/08/22 10:07:35;;;;;;;6.35;3.65;;;22.20;95.80;;;;;;10561355;28;20077;-74
2022/08/22 10:12:52;;;;;;;5.22;3.58;;;22.40;95.30;;;;;;10555374;28;20044;-73
2022/08/22 10:18:22;;;;;;;7.40;4.65;;;22.60;94.50;;;;;;10569535;28;20052;-74
2022/08/22 10:23:30;;;;;;;22.50;11.70;;;22.70;95.00;;;;;;10563824;28;20131;-73
2022/08/22 10:28:47;;;;;;;9.43;4.60;;;22.90;94.50;;;;;;10525203;28;20055;-73
2022/08/22 10:34:09;;;;;;;7.07;4.70;;;22.90;92.60;;;;;;10528995;28;20041;-76
2022/08/22 10:39:20;;;;;;;8.57;4.45;;;23.10;92.30;;;;;;10534914;28;20052;-76
2022/08/22 10:44:32;;;;;;;8.80;5.50;;;23.30;91.50;;;;;;10569407;28;20059;-75
2022/08/22 10:49:46;;;;;;;7.95;4.32;;;23.40;92.30;;;;;;10566290;28;20052;-76
2022/08/22 10:54:52;;;;;;;6.38;4.22;;;23.50;91.70;;;;;;10566494;28;20042;-75
2022/08/22 11:00:10;;;;;;;7.80;4.20;;;23.60;90.70;;;;;;10553748;28;20135;-74
2022/08/22 11:05:31;;;;;;;6.78;3.95;;;23.60;90.20;;;;;;10495016;28;20069;-75
2022/08/22 11:11:07;;;;;;;6.93;3.83;;;23.80;88.00;;;;;;10533304;28;20066;-75
2022/08/22 11:16:33;;;;;;;6.33;4.00;;;24.00;87.60;;;;;;10535453;28;20091;-74
2022/08/22 11:21:48;;;;;;;7.68;5.20;;;24.00;87.00;;;;;;10536357;28;20040;-76
2022/08/22 11:26:58;;;;;;;5.65;4.10;;;23.90;86.70;;;;;;10531809;28;20070;-74
2022/08/22 11:32:07;;;;;;;6.22;4.20;;;23.80;90.00;;;;;;10530580;28;20126;-74
2022/08/22 11:37:22;;;;;;;10.27;4.32;;;23.20;92.80;;;;;;10547833;28;20058;-75
2022/08/22 11:42:31;;;;;;;6.55;4.20;;;22.90;95.10;;;;;;10571982;28;20040;-75
2022/08/22 11:47:41;;;;;;;5.85;3.70;;;23.10;91.00;;;;;;10552400;28;20128;-74
2022/08/22 11:53:13;;;;;;;6.03;3.97;;;23.60;90.40;;;;;;10554677;28;20144;-75
2022/08/22 11:58:39;;;;;;;5.47;3.63;;;23.70;89.90;;;;;;10575684;28;20055;-75
2022/08/22 12:03:51;;;;;;;6.72;4.22;;;24.10;87.70;;;;;;10572619;28;20073;-75
2022/08/22 12:09:26;;;;;;;7.00;3.88;;;24.20;86.80;;;;;;10523941;28;20102;-74
2022/08/22 12:14:36;;;;;;;6.55;3.60;;;24.20;84.80;;;;;;10530767;28;20049;-76
2022/08/22 12:19:49;;;;;;;6.38;3.47;;;24.60;83.60;;;;;;10530929;28;20048;-77
2022/08/22 12:25:10;;;;;;;5.95;3.60;;;24.60;77.90;;;;;;10567872;28;20044;-75
2022/08/22 12:30:20;;;;;;;6.72;3.30;;;24.90;79.90;;;;;;10571153;28;20048;-74
2022/08/22 12:35:34;;;;;;;5.13;3.13;;;25.30;79.70;;;;;;10548035;28;20452;-78
2022/08/22 12:40:51;;;;;;;4.68;2.85;;;25.60;78.20;;;;;;10535530;28;20063;-79
2022/08/22 12:46:18;;;;;;;4.97;3.03;;;25.10;74.30;;;;;;10528794;28;20066;-80
2022/08/22 12:51:30;;;;;;;7.10;3.00;;;25.20;71.40;;;;;;10554199;28;20052;-79
2022/08/22 12:56:45;;;;;;;6.45;3.50;;;25.10;70.60;;;;;;10554378;28;20083;-79
2022/08/22 13:01:51;;;;;;;5.35;3.17;;;25.50;71.40;;;;;;10567150;28;20066;-78
2022/08/22 13:07:06;;;;;;;5.32;2.90;;;25.40;70.80;;;;;;10517265;28;20098;-75
2022/08/22 13:12:23;;;;;;;4.90;2.90;;;25.90;70.20;;;;;;10519152;28;20059;-77
2022/08/22 13:17:26;;;;;;;6.30;2.87;;;26.10;69.20;;;;;;10548806;28;20048;-75
2022/08/22 13:22:33;;;;;;;5.53;2.88;;;26.30;67.80;;;;;;10572117;28;20112;-77
2022/08/22 13:27:44;;;;;;;4.93;2.80;;;26.30;65.10;;;;;;10487704;28;20427;-76
2022/08/22 13:32:49;;;;;;;4.75;2.83;;;26.40;63.50;;;;;;10521478;28;20310;-75
2022/08/22 13:37:56;;;;;;;6.78;2.63;;;26.50;63.20;;;;;;10555738;28;20056;-77
2022/08/22 13:43:05;;;;;;;7.40;2.90;;;26.60;62.80;;;;;;10564273;28;20054;-77
2022/08/22 13:48:12;;;;;;;5.20;2.67;;;26.70;60.50;;;;;;10540662;28;20055;-76
2022/08/22 13:53:26;;;;;;;5.35;2.78;;;26.80;59.30;;;;;;10522110;28;20055;-76
2022/08/22 13:58:39;;;;;;;4.30;2.50;;;27.10;61.10;;;;;;10524454;28;20056;-74
2022/08/22 14:03:48;;;;;;;4.70;2.70;;;27.20;59.40;;;;;;10562936;28;20116;-78
2022/08/22 14:08:52;;;;;;;5.68;2.80;;;27.40;58.30;;;;;;10570521;28;20104;-76
2022/08/22 14:13:59;;;;;;;5.05;2.60;;;27.60;58.90;;;;;;10564593;28;20056;-75
2022/08/22 14:19:05;;;;;;;4.65;2.70;;;27.40;58.10;;;;;;10547593;28;20048;-77
2022/08/22 14:24:17;;;;;;;4.47;2.63;;;27.50;58.40;;;;;;10533140;28;20052;-75
2022/08/22 14:29:23;;;;;;;5.40;2.80;;;27.70;59.70;;;;;;10525539;28;20091;-77
2022/08/22 14:34:28;;;;;;;5.85;2.70;;;28.00;59.00;;;;;;10529050;28;20052;-78
2022/08/22 14:39:37;;;;;;;4.65;2.40;;;28.10;58.30;;;;;;10526517;28;20052;-78
2022/08/22 14:44:49;;;;;;;6.30;2.50;;;28.30;57.60;;;;;;10535101;28;20057;-77
2022/08/22 14:49:55;;;;;;;4.65;2.60;;;28.50;57.90;;;;;;10536964;28;20052;-77
2022/08/22 14:55:16;;;;;;;7.20;2.80;;;28.50;56.90;;;;;;10518393;28;20048;-76
2022/08/22 15:00:33;;;;;;;4.78;2.42;;;28.60;56.10;;;;;;10522228;28;20093;-76
2022/08/22 15:05:45;;;;;;;3.88;2.50;;;28.80;56.90;;;;;;10521503;28;20087;-76
2022/08/22 15:10:47;;;;;;;4.78;2.63;;;28.90;54.90;;;;;;10520730;28;20051;-77
2022/08/22 15:15:52;;;;;;;4.60;2.38;;;28.90;55.30;;;;;;10536817;28;20130;-78
2022/08/22 15:21:03;;;;;;;6.40;2.67;;;29.00;54.30;;;;;;10501278;28;20048;-78
2022/08/22 15:26:10;;;;;;;5.03;2.35;;;29.10;55.30;;;;;;10505105;28;20048;-77
2022/08/22 15:31:17;;;;;;;4.95;2.53;;;29.00;54.60;;;;;;10509945;28;20513;-77
2022/08/22 15:36:24;;;;;;;5.53;2.78;;;29.00;53.60;;;;;;10501100;28;20048;-75
2022/08/22 15:41:41;;;;;;;6.78;2.65;;;29.20;54.90;;;;;;10504021;28;20164;-75
2022/08/22 15:46:58;;;;;;;4.70;2.50;;;29.20;54.80;;;;;;10542013;28;20508;-76
2022/08/22 15:52:20;;;;;;;6.25;2.70;;;29.30;54.50;;;;;;10518665;28;20094;-78
2022/08/22 15:57:28;;;;;;;5.35;2.50;;;29.30;54.10;;;;;;10516828;28;20044;-76
2022/08/22 16:02:36;;;;;;;4.15;2.50;;;29.10;53.50;;;;;;10474980;28;20037;-78
2022/08/22 16:07:41;;;;;;;4.60;2.60;;;29.30;53.20;;;;;;10499316;28;20059;-76
2022/08/22 16:12:49;;;;;;;5.45;2.80;;;29.20;54.20;;;;;;10494497;28;20056;-76
2022/08/22 16:17:52;;;;;;;;;;;29.30;55.50;;;;;;10498198;28;20102;-76
2022/08/22 16:23:07;;;;;;;5.60;2.70;;;29.40;56.80;;;;;;10478567;28;19928;-77
2022/08/22 16:28:21;;;;;;;5.75;2.55;;;29.30;54.60;;;;;;10496897;28;20109;-76
2022/08/22 16:33:35;;;;;;;4.93;2.67;;;29.60;55.50;;;;;;10509538;28;20123;-77
2022/08/22 16:38:43;;;;;;;5.47;2.63;;;29.50;55.30;;;;;;10501312;28;20148;-77
2022/08/22 16:44:16;;;;;;;5.07;2.63;;;29.40;54.30;;;;;;10495784;28;20044;-76
2022/08/22 16:49:32;;;;;;;7.25;2.58;;;29.60;55.40;;;;;;10493280;28;20041;-75
2022/08/22 16:54:45;;;;;;;5.88;2.88;;;29.70;55.90;;;;;;10492108;28;20049;-76
2022/08/22 17:00:05;;;;;;;7.28;3.10;;;29.60;55.80;;;;;;10468315;28;20084;-79
2022/08/22 17:05:30;;;;;;;4.22;2.60;;;29.50;55.50;;;;;;10528860;28;20097;-79
2022/08/22 17:10:51;;;;;;;5.20;2.60;;;29.60;55.10;;;;;;10509816;28;20033;-77
2022/08/22 17:16:12;;;;;;;4.80;2.80;;;29.60;54.80;;;;;;10496347;28;20048;-75
2022/08/22 17:21:24;;;;;;;4.50;2.30;;;29.50;56.50;;;;;;10492401;28;20067;-75
2022/08/22 17:26:40;;;;;;;5.05;2.60;;;29.50;57.00;;;;;;10451887;28;20052;-74
2022/08/22 17:31:51;;;;;;;5.38;2.60;;;29.50;58.20;;;;;;10522486;28;20078;-76
2022/08/22 17:37:07;;;;;;;5.80;2.63;;;29.50;58.90;;;;;;10532647;28;20051;-74
2022/08/22 17:42:26;;;;;;;4.07;2.50;;;29.40;59.40;;;;;;10496974;28;20501;-76
2022/08/22 17:47:37;;;;;;;5.38;2.67;;;29.10;60.00;;;;;;10471649;28;20045;-77
2022/08/22 17:52:49;;;;;;;5.80;3.28;;;29.10;59.60;;;;;;10497162;28;20512;-75
2022/08/22 17:57:56;;;;;;;4.82;2.58;;;29.00;60.90;;;;;;10496529;28;20513;-76
2022/08/22 18:03:07;;;;;;;6.00;2.73;;;28.50;60.60;;;;;;10497144;28;20052;-77
2022/08/22 18:08:21;;;;;;;4.70;2.65;;;28.20;60.40;;;;;;10493886;28;20052;-74
2022/08/22 18:13:41;;;;;;;6.45;2.90;;;27.90;62.00;;;;;;10509934;28;20063;-74
2022/08/22 18:18:50;;;;;;;3.97;2.20;;;27.70;63.20;;;;;;10500395;28;20604;-74
2022/08/22 18:23:59;;;;;;;4.70;2.90;;;27.50;63.80;;;;;;10496596;28;20474;-73
2022/08/22 18:29:11;;;;;;;5.93;2.83;;;27.30;64.90;;;;;;10519103;28;20055;-75
2022/08/22 18:34:24;;;;;;;6.03;2.90;;;27.10;65.50;;;;;;10508940;28;20049;-76
2022/08/22 18:39:34;;;;;;;6.22;2.97;;;26.80;64.80;;;;;;10493730;28;20060;-75
2022/08/22 18:44:38;;;;;;;5.40;2.67;;;26.50;66.30;;;;;;10494658;28;20048;-74
2022/08/22 18:49:52;;;;;;;5.85;2.70;;;26.30;66.40;;;;;;10501940;28;20056;-75
2022/08/22 18:55:27;;;;;;;5.72;3.00;;;26.10;68.00;;;;;;10521560;28;20053;-78
2022/08/22 19:00:52;;;;;;;6.57;2.70;;;25.90;68.30;;;;;;10492986;28;20051;-78
2022/08/22 19:06:46;;;;;;;7.05;2.80;;;25.70;68.20;;;;;;10531515;28;20064;-78
2022/08/22 19:12:06;;;;;;;6.68;3.10;;;25.50;68.10;;;;;;10484313;28;20771;-79
2022/08/22 19:17:42;;;;;;;7.43;2.95;;;25.40;70.30;;;;;;10509586;28;20086;-78
2022/08/22 19:22:45;;;;;;;7.50;2.70;;;25.30;69.30;;;;;;10499464;28;20051;-78
2022/08/22 19:28:25;;;;;;;6.22;2.90;;;25.10;69.10;;;;;;10500268;28;20052;-79
2022/08/22 19:33:38;;;;;;;5.88;2.72;;;24.90;68.60;;;;;;10498448;28;20123;-79
2022/08/22 19:38:58;;;;;;;5.85;2.47;;;24.80;69.30;;;;;;10500333;28;20441;-77
2022/08/22 19:44:02;;;;;;;6.85;2.45;;;24.70;69.30;;;;;;10500090;28;20052;-76
2022/08/22 19:49:06;;;;;;;5.53;2.35;;;24.60;69.30;;;;;;10511811;28;20491;-77
2022/08/22 19:54:17;;;;;;;4.88;2.80;;;24.60;69.80;;;;;;10528842;28;20397;-76
2022/08/22 19:59:33;;;;;;;5.10;2.35;;;24.30;70.10;;;;;;10530185;28;20071;-78
2022/08/22 20:04:56;;;;;;;5.28;2.50;;;24.30;71.50;;;;;;10533292;28;20044;-77
2022/08/22 20:10:16;;;;;;;5.03;2.58;;;24.20;71.70;;;;;;10500127;28;20048;-78
2022/08/22 20:15:24;;;;;;;5.15;2.50;;;24.00;72.10;;;;;;10501594;28;20045;-78
2022/08/22 20:20:56;;;;;;;6.88;2.72;;;23.90;71.10;;;;;;10511316;28;20052;-77
2022/08/22 20:25:59;;;;;;;6.72;2.95;;;23.90;71.20;;;;;;10513206;28;20056;-75
2022/08/22 20:31:07;;;;;;;9.48;3.08;;;23.50;73.10;;;;;;10502633;28;20063;-76
2022/08/22 20:36:12;;;;;;;8.13;3.40;;;23.10;75.60;;;;;;10502923;28;20098;-77
2022/08/22 20:41:21;;;;;;;5.00;3.20;;;23.10;77.40;;;;;;10493324;28;20095;-77
2022/08/22 20:46:47;;;;;;;5.57;3.03;;;23.00;78.90;;;;;;10502582;28;20048;-76
2022/08/22 20:51:56;;;;;;;5.95;3.17;;;22.70;78.90;;;;;;10518390;28;20691;-75
2022/08/22 20:57:01;;;;;;;8.88;3.53;;;22.60;80.40;;;;;;10508449;28;20106;-77
2022/08/22 21:02:13;;;;;;;6.95;3.60;;;22.70;80.50;;;;;;10495512;28;20045;-76
2022/08/22 21:07:22;;;;;;;8.75;3.80;;;22.70;81.90;;;;;;10497740;28;20055;-78
2022/08/22 21:12:25;;;;;;;8.70;3.30;;;22.70;82.20;;;;;;10498339;28;20402;-77
2022/08/22 21:17:32;;;;;;;6.78;3.85;;;22.60;83.60;;;;;;10498522;28;20456;-75
2022/08/22 21:22:34;;;;;;;9.68;4.28;;;22.50;83.80;;;;;;10503596;28;20040;-77
2022/08/22 21:27:36;;;;;;;7.57;3.65;;;22.30;84.90;;;;;;10530461;28;20044;-77
2022/08/22 21:32:43;;;;;;;7.18;4.00;;;22.30;86.00;;;;;;10535443;28;20041;-77
2022/08/22 21:37:46;;;;;;;9.27;4.28;;;22.00;86.40;;;;;;10534825;28;20054;-74
2022/08/22 21:43:07;;;;;;;7.28;3.70;;;22.00;87.00;;;;;;10535172;28;20048;-75
2022/08/22 21:48:33;;;;;;;6.53;4.28;;;21.80;85.50;;;;;;10540941;28;20742;-77
2022/08/22 21:53:35;;;;;;;7.30;3.30;;;21.50;89.50;;;;;;10500865;28;20050;-78
2022/08/22 21:58:38;;;;;;;7.47;3.20;;;21.60;86.80;;;;;;10497654;28;20044;-76
2022/08/22 22:03:41;;;;;;;5.85;2.67;;;21.60;85.70;;;;;;10497744;28;20514;-77
2022/08/22 22:08:43;;;;;;;5.05;3.03;;;21.60;84.60;;;;;;10497256;28;20051;-77
2022/08/22 22:13:45;;;;;;;5.97;2.92;;;21.50;83.00;;;;;;10507883;28;20059;-78
2022/08/22 22:18:49;;;;;;;6.00;2.55;;;21.40;84.50;;;;;;10511076;28;20052;-78
2022/08/22 22:23:51;;;;;;;5.28;2.72;;;21.60;82.60;;;;;;10498845;28;20056;-77
2022/08/22 22:28:53;;;;;;;6.60;3.10;;;21.30;84.90;;;;;;10511137;28;20054;-78
2022/08/22 22:33:58;;;;;;;5.53;3.08;;;21.20;85.80;;;;;;10510377;28;20044;-78
2022/08/22 22:39:00;;;;;;;5.53;2.53;;;21.30;85.00;;;;;;10499543;28;20418;-77
2022/08/22 22:44:02;;;;;;;6.15;2.72;;;21.40;82.30;;;;;;10504948;28;20406;-78
2022/08/22 22:49:06;;;;;;;4.38;2.50;;;21.50;81.70;;;;;;10503237;28;20072;-77
2022/08/22 22:54:08;;;;;;;4.55;2.90;;;21.50;82.10;;;;;;10504064;28;20056;-76
2022/08/22 22:59:10;;;;;;;5.05;2.80;;;21.50;83.70;;;;;;10511789;28;20143;-80
2022/08/22 23:04:13;;;;;;;5.50;3.35;;;21.30;83.80;;;;;;10529893;28;20041;-77
2022/08/22 23:09:16;;;;;;;6.80;3.47;;;21.10;85.80;;;;;;10508647;28;20056;-77
2022/08/22 23:14:18;;;;;;;7.28;3.08;;;20.80;86.50;;;;;;10518124;28;20051;-78
2022/08/22 23:19:21;;;;;;;7.15;2.65;;;20.80;87.40;;;;;;10539135;28;20048;-75
2022/08/22 23:24:24;;;;;;;8.07;3.15;;;20.80;84.90;;;;;;10546968;28;20494;-75
2022/08/22 23:29:27;;;;;;;6.03;3.08;;;20.80;86.90;;;;;;10502823;28;20375;-78
2022/08/22 23:34:35;;;;;;;6.32;2.85;;;20.70;88.50;;;;;;10501973;28;20048;-77
2022/08/22 23:39:38;;;;;;;4.93;2.85;;;20.40;89.00;;;;;;10502339;28;20056;-78
2022/08/22 23:44:43;;;;;;;7.68;2.90;;;20.50;87.00;;;;;;10501802;28;20520;-76
2022/08/22 23:49:47;;;;;;;6.00;3.08;;;20.20;88.90;;;;;;10508735;28;20574;-78
2022/08/22 23:54:49;;;;;;;8.50;3.20;;;20.40;89.00;;;;;;10503690;28;20044;-78
2022/08/22 23:59:51;;;;;;;8.40;2.85;;;20.40;90.30;;;;;;10501237;28;20505;-77
